Tiempo atmosférico en la estación meteorológica de Ayamonte, Huelva (2 m.)

Fecha
DESCASC
Temp. máxima en grados centígrados (hora)
DESCASC
Temp. mínima en grados centígrados (hora)
DESCASC
Temp. media en grados centígrados
DESCASC
Racha de viento máxima en m/sg (hora)
DESCASC
Velocidad máxima media en intervalos de 10 minutos(hora)
DESCASC
Precipitaciones diarias en mm
DESCASC
Precipitaciones de 00:00 a 06:00 en mm
DESCASC
Precipitaciones de 06:00 a 12:00 en mm
DESCASC
Precipitaciones de 12:00 a 18:00 en mm
DESCASC
Precipitaciones de 18:00 a 24:00 en mm
DESCASC
19-10-2017 23.3 (18:30) 16 (06:00) 19.6 6.11 (16:30) 2.5 (15:40) 3.7 3.6 0 0.1 0
18-10-2017 23.3 (16:30) 16.9 (23:59) 20.1 9.44 (17:20) 5.83 (17:30) 3 1.8 0.1 0 1.1
17-10-2017 25.2 (15:30) 19.6 (22:50) 22.4 9.72 (19:00) 5.28 (19:00) 5.5 0 5.4 0.1 0
16-10-2017 25.1 (12:30) 17.2 (08:40) 21.2 11.11 (16:30) 4.17 (16:40) 0 0 0 0 0
15-10-2017 28.3 (15:30) 17.2 (00:00) 22.8 8.61 (19:30) 3.89 (20:00) 0 0 0 0 0
14-10-2017 30.6 (14:40) 18.1 (00:00) 24.4 4.17 (08:40) 2.22 (15:00) 0 0 0 0 0
13-10-2017 30.1 (16:00) 18.1 (00:00) 24.1 4.72 (14:50) 2.78 (16:30) 0 0 0 0 0
12-10-2017 26.5 (16:40) 16.4 (00:00) 21.4 5.83 (13:20) 3.33 (12:50) 0 0 0 0 0
11-10-2017 28.6 (14:10) 14.5 (00:00) 21.6 4.44 (14:50) 2.5 (15:30) 0 0 0 0 0
10-10-2017 26.5 (17:10) 13.9 (00:00) 20.2 5.28 (14:00) 2.78 (14:00) 0 0 0 0 0
09-10-2017 27.4 (14:20) 17.1 (00:00) 22.3 6.11 (15:30) 3.61 (16:10) 0 0 0 0 0
08-10-2017 28.8 (14:20) 16.5 (00:00) 22.6 5 (13:50) 2.78 (18:00) 0 0 0 0 0
07-10-2017 27.1 (12:00) 16.4 (00:00) 21.8 6.11 (15:10) 3.61 (18:10) 0 0 0 0 0
06-10-2017 28.6 (12:00) 16.2 (00:00) 22.4 4.44 (13:40) 3.06 (13:40) 0 0 0 0 0
05-10-2017 29 (13:10) 17.9 (00:00) 23.4 6.39 (13:20) 3.61 (13:20) 0 0 0 0 0
04-10-2017 29 (16:00) 17.8 (00:00) 23.4 6.67 (12:30) 2.78 (12:40) 0 0 0 0 0
03-10-2017 30.1 (14:40) 18 (00:00) 24.1 5.83 (14:20) 3.61 (15:10) 0 0 0 0 0
02-10-2017 29.7 (14:20) 16.5 (00:00) 23.1 5.28 (15:30) 3.33 (15:30) 0 0 0 0 0
01-10-2017 30.1 (13:40) 17.8 (00:00) 23.9 10 (02:00) 4.72 (01:30) 0 0 0 0 0
30-09-2017 28.3 (13:30) 18.1 (00:00) 23.2 6.94 (23:50) 4.17 (15:50) 0 0 0 0 0
29-09-2017 28.4 (12:50) 17.5 (00:00) 22.9 6.39 (14:50) 3.89 (15:00) 0 0 0 0 0
28-09-2017 28.7 (15:30) 20 (00:00) 24.4 5 (17:30) 2.78 (17:10) 0 0 0 0 0
27-09-2017 26.2 (17:10) 16.6 (00:00) 21.4 4.17 (11:20) 2.22 (13:00) 0 0 0 0 0
26-09-2017 29 (14:20) 15 (00:00) 22 9.72 (03:40) 5.28 (15:30) 0 0 0 0 0
25-09-2017 30.8 (15:00) 17.8 (00:00) 24.3 8.89 (19:00) 4.72 (18:50) 0 0 0 0 0
24-09-2017 28.6 (14:10) 15.1 (00:00) 21.9 7.5 (23:59) 3.89 (18:00) 0 0 0 0 0
23-09-2017 28.8 (14:40) 15.7 (00:00) 22.2 6.11 (15:40) 3.89 (15:40) 0 0 0 0 0
22-09-2017 28.5 (14:30) 16.2 (00:00) 22.4 10 (07:50) 4.44 (07:30) 0 0 0 0 0
21-09-2017 29.3 (13:10) 16.6 (00:00) 22.9 7.78 (18:30) 4.17 (18:10) 0 0 0 0 0
20-09-2017 26 (13:20) 16.9 (00:00) 21.4 5.83 (02:20) 3.06 (15:30) 0 0 0 0 0

Gráficas

Temp. máximas Temp. mínimas Temp. medias Precipitaciones Rachas de viento máximas Velocidades máximas media en intervalos de 10 minutos

Datos horarios

Fecha y hora oficial Temperatura (ºC) Velocidad del viento (km/h) Dirección del viento Racha (km/h) Dirección de racha Precipitación (mm) Presión (hPa) Tendencia (hPa) Humedad (%)
2017-10-19 23:00:00 19.8 6 Noroeste 20 Norte 0 1017.6 1.9 73
2017-10-19 22:00:00 20.4 3 Noroeste 10 Oeste 0 1017.2 2.2 85
2017-10-19 21:00:00 20.9 0 Calma 9 Sudoeste 0 1016.4 1.9 81
2017-10-19 20:00:00 21.2 5 Sudoeste 15 Sudoeste 0 1015.7 1.2 73
2017-10-19 19:00:00 22.7 0 Calma 12 Noroeste 0 1015 0.6 61
2017-10-19 18:00:00 22.6 7 Noroeste 17 Oeste 0 1014.5 -0.3 60
2017-10-19 17:00:00 22.6 6 Noroeste 22 Noroeste 0 1014.5 -0.6 63
2017-10-19 16:00:00 22 7 Noroeste 21 Noroeste 0 1014.4 -0.6 64
2017-10-19 15:00:00 21.2 8 Noroeste 17 Noroeste 0 1014.8 0.4 68
2017-10-19 14:00:00 20.5 5 Noroeste 17 Noroeste 0 1015.1 1.7 75
2017-10-19 13:00:00 20 8 Noroeste 18 Noroeste 0.1 1015 2 79
2017-10-19 12:00:00 19.4 0 Calma 10 Noroeste 0 1014.4 2 94
2017-10-19 11:00:00 18.8 0 Calma 5 Este 0 1013.4 1.7 99
2017-10-19 10:00:00 18 0 Calma 5 Noroeste 0 1013 2 99
2017-10-19 09:00:00 17.1 0 Calma 4 Noroeste 0 1012.4 1.7 99
2017-10-19 08:00:00 16.7 0 Calma 4 Noroeste 0 1011.7 1.2 99
2017-10-19 07:00:00 16.4 0 Calma 0 Calma 0 1011 0.1 99
2017-10-19 06:00:00 16 0 Calma 4 Noroeste 0 1010.7 -0.2 99
2017-10-19 05:00:00 16.5 0 Calma 5 Noroeste 0 1010.5 -0.5 99
2017-10-19 04:00:00 16.2 0 Calma 5 Nordeste 0 1010.9 -1.3 99
2017-10-19 03:00:00 16.2 4 Nordeste 14 Este 0.8 1010.9 -2 99
2017-10-19 02:00:00 16.2 8 Nordeste 16 Nordeste 2.2 1011 -1.7 99
2017-10-19 01:00:00 16.6 6 Nordeste 12 Nordeste 0.6 1012.2 -0.9 99
2017-10-19 00:00:00 16.9 2 Nordeste 11 Nordeste 0.6 1012.9 0.5 97
2017-10-18 23:00:00 18 4 Noroeste 15 Oeste 0.3 1012.7 0.7 92
2017-10-18 22:00:00 18.8 8 Oeste 18 Oeste 0.2 1013.1 1.2 92
2017-10-18 21:00:00 20 13 Oeste 26 Oeste 0 1012.4 0.9 89
2017-10-18 20:00:00 20.2 10 Sudoeste 29 Sudoeste 0 1012 -0.1 83
2017-10-18 19:00:00 20.6 12 Oeste 28 Sudoeste 0 1011.9 -0.3 79
2017-10-18 18:00:00 20.6 15 Sudoeste 34 Oeste 0 1011.5 -1.8 80
2017-10-18 17:00:00 21.4 18 Sudoeste 33 Sudoeste 0 1012.1 -1.5 74
2017-10-18 16:00:00 22.3 15 Sudoeste 27 Sudoeste 0 1012.2 -2.1 73
2017-10-18 15:00:00 21.2 15 Sudoeste 28 Sudoeste 0 1013.3 -1.1 72
2017-10-18 14:00:00 21.9 7 Sudoeste 22 Sudoeste 0 1013.6 -1 70
2017-10-18 13:00:00 20.2 0 Calma 10 Oeste 0 1014.3 0.4 70
2017-10-18 12:00:00 19.8 3 Sudoeste 12 Oeste 0.1 1014.4 1 74
2017-10-18 11:00:00 18.7 3 Sudoeste 5 Sudoeste 0 1014.6 1.3 93
2017-10-18 10:00:00 17.8 0 Calma 6 Oeste 0 1013.9 0.5 96
2017-10-18 09:00:00 17.2 0 Calma 12 Oeste 0 1013.4 0 96
2017-10-18 08:00:00 17 7 Oeste 18 Oeste 0 1013.3 -0.6 97
2017-10-18 07:00:00 17.2 4 Oeste 22 Oeste 0 1013.4 -0.8 97
2017-10-18 06:00:00 17.7 12 Oeste 30 Oeste 0.1 1013.4 -1.4 97
2017-10-18 05:00:00 18.2 9 Oeste 18 Sudoeste 1 1013.9 -1.6 98
2017-10-18 04:00:00 18.7 0 Calma 7 Noroeste 0.7 1014.2 -1.7 91
2017-10-18 03:00:00 19 3 Noroeste 21 Oeste 0 1014.8 -1.6 86
2017-10-18 02:00:00 19.6 10 Oeste 21 Oeste 0 1015.5 -1.1 85
2017-10-18 01:00:00 20 9 Oeste 25 Oeste 0 1015.9 -0.5 84
2017-10-18 00:00:00 19.9 8 Oeste 19 Oeste 0 1016.4 -0.2 82
2017-10-17 23:00:00 19.9 8 Oeste 25 Oeste 0 1016.6 0.5 80
2017-10-17 22:00:00 20.1 13 Oeste 28 Sudoeste 0 1016.4 0.1 75
2017-10-17 21:00:00 20.8 17 Sudoeste 32 Sudoeste 0 1016.6 0 74
2017-10-17 20:00:00 21.1 18 Sudoeste 34 Sudoeste 0 1016.1 -0.6 73
2017-10-17 19:00:00 21.5 19 Sudoeste 35 Sudoeste 0 1016.3 -0.7 69
2017-10-17 18:00:00 22.7 18 Sudoeste 31 Sudoeste 0 1016.6 -1.4 72
2017-10-17 17:00:00 22.5 16 Sudoeste 28 Sur 0 1016.7 -2.3 73
2017-10-17 16:00:00 23.8 15 Sudoeste 27 Sur 0 1017 -2.2 68
2017-10-17 15:00:00 24.1 12 Sudoeste 21 Sudoeste 0 1018 -1.2 67
2017-10-17 14:00:00 23.4 9 Sur 18 Sur 0 1019 0.2 71
2017-10-17 13:00:00 24.2 4 Sudoeste -- -- -- 1019.2 0.4 70
2017-10-17 12:00:00 21.8 0 Calma 7 Nordeste 0.5 1019.2 1 83
2017-10-17 11:00:00 20.7 3 Norte 11 Oeste 4.9 1018.8 0.4 96
2017-10-17 10:00:00 21.2 4 Oeste 14 Oeste 0 1018.8 1.1 96
2017-10-17 09:00:00 21.1 7 Oeste 15 Oeste 0 1018.2 0.4 97
2017-10-17 08:00:00 21.3 8 Sudoeste 14 Sudoeste 0 1018.4 0.4 98
2017-10-17 07:00:00 20.8 5 Sudoeste 13 Sudoeste 0 1017.7 -0.9 98
2017-10-17 06:00:00 21.3 5 Sudoeste 29 Sur 0 1017.8 -1.2 98
2017-10-17 05:00:00 22.2 13 Sur 24 Sudoeste 0 1018 -1.4 98
2017-10-17 04:00:00 22.1 13 Sur 25 Sur 0 1018.6 -1 95
2017-10-17 03:00:00 22.1 18 Sur 27 Sur 0 1019 -0.8 95
2017-10-17 02:00:00 22.1 15 Sur 26 Sur 0 1019.4 -0.4 94
2017-10-17 01:00:00 22.2 14 Sur 29 Sur 0 1019.6 0.2 92
2017-10-17 00:00:00 22.2 11 Sur 27 Sur 0 1019.8 0.5 90
2017-10-16 23:00:00 22.4 14 Sur 27 Sudeste 0 1019.8 0.6 89
2017-10-16 22:00:00 22.5 14 Sur 27 Sudeste 0 1019.4 0 88
2017-10-16 21:00:00 22.6 12 Sur 24 Sur 0 1019.3 -0.3 87
2017-10-16 20:00:00 22.7 13 Sur 26 Sur 0 1019.2 -0.7 85
2017-10-16 19:00:00 22.9 12 Sur 26 Sur 0 1019.4 -0.9 85
2017-10-16 18:00:00 23.3 12 Sur 27 Sudeste 0 1019.6 -1 82
2017-10-16 17:00:00 23.8 15 Sur 40 Sur 0 1019.9 -1.4 77
2017-10-16 16:00:00 24.6 12 Sur 28 Sudeste 0 1020.3 -1.2 74
2017-10-16 15:00:00 23.9 13 Sudeste 25 Sudeste 0 1020.6 -1.1 74
2017-10-16 14:00:00 23.8 11 Sudeste 22 Sudeste 0 1021.3 0.3 77
2017-10-16 13:00:00 23.6 12 Sudeste 23 Sur 0 1021.5 1 74
2017-10-16 12:00:00 23.4 11 Sudeste 19 Sudeste 0 1021.7 1.7 71
2017-10-16 11:00:00 21.9 4 Este 9 Este 0 1021 1.6 61
2017-10-16 10:00:00 20.4 3 Nordeste 21 Sur 0 1020.5 1.3 77
2017-10-16 09:00:00 17.5 0 Calma 8 Este 0 1020 1 85
2017-10-16 08:00:00 18 6 Este 13 Este 0 1019.4 0.8 86
2017-10-16 07:00:00 17.4 0 Calma 5 Nordeste 0 1019.2 0.4 92
2017-10-16 06:00:00 18.4 0 Calma 5 Nordeste 0 1019 0.3 92
2017-10-16 05:00:00 19.5 0 Calma 10 Sudeste 0 1018.6 -1 87
2017-10-16 04:00:00 20.5 4 Sudeste 18 Sudeste 0 1018.8 -0.7 82
2017-10-16 03:00:00 21.6 10 Sudeste 21 Este 0 1018.7 -0.4 80
2017-10-16 02:00:00 20.8 0 Calma 10 Sudeste 0 1019.6 1 82
2017-10-16 01:00:00 21.5 7 Sudeste 14 Sudeste 0 1019.5 1 79
2017-10-16 00:00:00 22.4 7 Sudeste 21 Sudeste 0 1019.1 1.3 74
2017-10-15 23:00:00 22.7 12 Sudeste 23 Sudeste 0 1018.6 1.3 72
2017-10-15 22:00:00 22.2 3 Oeste 25 Sur 0 1018.5 1.1 72
2017-10-15 21:00:00 24.1 8 Sudeste 31 Sudeste 0 1017.8 0.2 65
2017-10-15 20:00:00 24.8 14 Sudeste 31 Sudeste 0 1017.3 -0.6 63
2017-10-15 19:00:00 25.8 14 Sudeste 29 Sudeste 0 1017.4 -1 60
2017-10-15 18:00:00 26.7 9 Sudeste 24 Sudeste 0 1017.6 -1.6 61
2017-10-15 17:00:00 27.5 9 Sudeste 23 Sur 0 1017.9 -2.1 57
2017-10-15 16:00:00 27.9 10 Sudeste 24 Sur 0 1018.4 -2.1 53
2017-10-15 15:00:00 28.1 8 Sudeste 22 Sudeste 0 1019.2 -1.5 51
2017-10-15 14:00:00 26.8 8 Sudeste 20 Sudeste 0 1020 -0.6 52
2017-10-15 13:00:00 26.1 8 Sudeste 26 Sudeste 0 1020.5 0 51
2017-10-15 12:00:00 24.9 10 Sudeste 23 Sudeste 0 1020.7 0.8 53
2017-10-15 11:00:00 23.7 7 Este 15 Este 0 1020.6 0.9 57
2017-10-15 10:00:00 20.5 4 Este 9 Sudeste 0 1020.5 0.7 71
2017-10-15 09:00:00 17.6 3 Nordeste 7 Norte 0 1019.9 0.4 77
2017-10-15 08:00:00 17.5 0 Calma 5 Norte 0 1019.7 0.2 82
2017-10-15 07:00:00 18 0 Calma 8 Nordeste 0 1019.8 -0.1 81
2017-10-15 06:00:00 18.7 5 Este 8 Este 0 1019.5 -0.7 81
2017-10-15 05:00:00 19.5 2 Nordeste 5 Este 0 1019.5 -0.9 80
2017-10-15 04:00:00 20.2 0 Calma 8 Noroeste 0 1019.9 -0.9 77
2017-10-15 03:00:00 19.7 0 Calma 6 Noroeste 0 1020.2 -0.7 76
2017-10-15 02:00:00 20.1 0 Calma 7 Oeste 0 1020.4 -0.5 73
2017-10-15 01:00:00 20 0 Calma 4 Nordeste 0 1020.8 0.3 74
2017-10-15 00:00:00 21.4 2 Nordeste 8 Este 0 1020.9 0.4 70
2017-10-14 23:00:00 21.9 0 Calma 6 Norte 0 1020.9 0.6 66
2017-10-14 22:00:00 21.8 0 Calma 6 Noroeste 0 1020.5 0.1 60
2017-10-14 21:00:00 22.8 0 Calma 7 Nordeste 0 1020.5 0.1 54
2017-10-14 20:00:00 24.7 0 Calma 9 Sur 0 1020.3 0 48
2017-10-14 19:00:00 27 0 Calma 10 Sudoeste 0 1020.4 0.1 44
2017-10-14 18:00:00 27.2 4 Sudoeste 9 Sur 0 1020.4 -0.3 46
2017-10-14 17:00:00 27.1 4 Sudoeste 14 Sur 0 1020.3 -0.9 48
2017-10-14 16:00:00 27.1 7 Sur 14 Sur 0 1020.3 -1.5 47
2017-10-14 15:00:00 28.3 8 Sur 15 Sur 0 1020.7 -1.2 43
2017-10-14 14:00:00 29.1 6 Sudeste 14 Sur 0 1021.2 -0.8 43
2017-10-14 13:00:00 28.6 6 Este 14 Este 0 1021.8 0.2 46
2017-10-14 12:00:00 26 0 Calma 5 Este 0 1021.9 1 52
2017-10-14 11:00:00 23.1 0 Calma 5 Este 0 1022 1.5 60
2017-10-14 10:00:00 20 0 Calma 6 Nordeste 0 1021.6 0.9 74
2017-10-14 09:00:00 19 3 Norte 15 Noroeste 0 1020.9 0.2 73
2017-10-14 08:00:00 18.6 3 Este 14 Norte 0 1020.5 -0.1 71
2017-10-14 07:00:00 19.5 4 Norte 12 Noroeste 0 1020.7 -0.3 72
2017-10-14 06:00:00 18.6 5 Oeste 14 Oeste 0 1020.7 -0.6 76
2017-10-14 05:00:00 19.2 3 Noroeste 6 Noroeste 0 1020.6 -0.8 80
2017-10-14 04:00:00 19 0 Calma 6 Norte 0 1021 -0.5 80
2017-10-14 03:00:00 18.5 0 Calma 7 Noroeste 0 1021.3 -0.4 84
2017-10-14 02:00:00 18.5 3 Noroeste 6 Noroeste 0 1021.4 -0.4 86
2017-10-14 01:00:00 18.8 0 Calma 4 Nordeste 0 1021.5 0 86
2017-10-14 00:00:00 19.3 0 Calma 3 Nordeste 0 1021.7 0.3 85
2017-10-13 23:00:00 19.5 0 Calma 2 Nordeste 0 1021.8 0.8 82
2017-10-13 22:00:00 20.5 0 Calma 3 Nordeste 0 1021.5 0.5 77
2017-10-13 21:00:00 22 0 Calma 5 Sur 0 1021.4 0.5 67
2017-10-13 20:00:00 24.2 3 Sur 6 Sudoeste 0 1021 -0.1 52
2017-10-13 19:00:00 25.9 6 Sudoeste 12 Sur 0 1021 -0.4 43
2017-10-13 18:00:00 27.5 6 Sudoeste 13 Sur 0 1020.9 -1 37
2017-10-13 17:00:00 28.4 8 Sur 17 Sur 0 1021.1 -1.4 35
2017-10-13 16:00:00 29.4 9 Sur 16 Sur 0 1021.4 -1.6 34
2017-10-13 15:00:00 29.3 8 Sudeste 17 Sudeste 0 1021.9 -1.3 35
2017-10-13 14:00:00 28.6 6 Este 14 Este 0 1022.5 -0.9 40
2017-10-13 13:00:00 27.9 3 Este 9 Este 0 1023 0.4 47
2017-10-13 12:00:00 25 2 Norte 7 Nordeste 0 1023.2 1.4 58
2017-10-13 11:00:00 21.3 0 Calma 15 Norte 0 1023.4 1.7 72
2017-10-13 10:00:00 18.9 7 Norte 15 Norte 0 1022.6 1 81
2017-10-13 09:00:00 18.2 4 Norte 10 Norte 0 1021.8 0.3 81
2017-10-13 08:00:00 18.5 4 Norte 13 Norte 0 1021.7 0.1 81
2017-10-13 07:00:00 18.7 6 Norte 14 Noroeste 0 1021.6 -0.3 80
2017-10-13 06:00:00 18.7 5 Noroeste 12 Norte 0 1021.5 -0.4 79
2017-10-13 05:00:00 19 5 Noroeste 15 Noroeste 0 1021.6 -0.3 77
2017-10-13 04:00:00 19.5 6 Noroeste 15 Noroeste 0 1021.9 -0.1 75
2017-10-13 03:00:00 20.1 6 Noroeste 15 Norte 0 1021.9 -0.2 71
2017-10-13 02:00:00 20.5 5 Noroeste 15 Norte 0 1021.9 0.1 71
2017-10-13 01:00:00 20.5 4 Norte 11 Norte 0 1022 0.6 77
2017-10-13 00:00:00 20 4 Noroeste 7 Noroeste 0 1022.1 0.9 96
2017-10-12 23:00:00 20.6 0 Calma 3 Noroeste 0 1021.8 0.7 92
2017-10-12 22:00:00 21.5 0 Calma 6 Sudoeste 0 1021.4 0.6 85
2017-10-12 21:00:00 22.4 3 Sudoeste 8 Oeste 0 1021.2 0.2 77
2017-10-12 20:00:00 24 4 Oeste 10 Oeste 0 1021.1 0 70
2017-10-12 19:00:00 25.5 5 Sudoeste 11 Sudoeste 0 1020.8 -0.4 68
2017-10-12 18:00:00 25.8 7 Sudoeste 16 Sur 0 1021 -0.7 68
2017-10-12 17:00:00 25.5 9 Sudoeste 17 Sur 0 1021.1 -1.1 70
2017-10-12 16:00:00 26.1 9 Sudoeste 18 Sudoeste 0 1021.2 -1.2 71
2017-10-12 15:00:00 25.5 10 Sur 21 Sudeste 0 1021.7 -0.4 74
2017-10-12 14:00:00 25.4 10 Sur 21 Sudeste 0 1022.2 0.4 77
2017-10-12 13:00:00 25.1 10 Sur 20 Sudeste 0 1022.4 1.2 79
2017-10-12 12:00:00 24.8 11 Sur 19 Sur 0 1022.1 1.7 81
2017-10-12 11:00:00 24.2 8 Sudeste 19 Sudeste 0 1021.8 1.8 85
2017-10-12 10:00:00 21 5 Este 11 Este 0 1021.2 1.4 83
2017-10-12 09:00:00 16.6 4 Nordeste 7 Nordeste 0 1020.4 1 93
2017-10-12 08:00:00 16.6 0 Calma 3 Nordeste 0 1020 0.7 96
2017-10-12 07:00:00 17.2 0 Calma 4 Nordeste 0 1019.8 0.5 98
2017-10-12 06:00:00 17.6 4 Nordeste 7 Este 0 1019.4 0 97
2017-10-12 05:00:00 17.5 0 Calma 5 Noroeste 0 1019.3 -0.3 95
2017-10-12 04:00:00 17.8 0 Calma 5 Oeste 0 1019.3 -0.4 93
2017-10-12 03:00:00 18.3 0 Calma 4 Nordeste 0 1019.4 -0.5 91
2017-10-12 02:00:00 19 0 Calma 4 Nordeste 0 1019.6 0.4 87
2017-10-12 01:00:00 19.8 0 Calma 5 Oeste 0 1019.7 1.3 82
2017-10-12 00:00:00 20.7 4 Oeste 12 Sudoeste 0 1019.9 1.6 77
2017-10-11 23:00:00 21.2 0 Calma 8 Este 0 1019.2 0.7 72
2017-10-11 22:00:00 22.4 4 Nordeste 10 Este 0 1018.4 0.2 64
2017-10-11 21:00:00 22.5 3 Nordeste 6 Nordeste 0 1018.3 0.3 61
2017-10-11 20:00:00 24.3 0 Calma 0 Calma 0 1018.5 0.5 52
2017-10-11 19:00:00 26.6 0 Calma 8 Sur 0 1018.2 -0.2 45
2017-10-11 18:00:00 27.7 5 Sur 12 Sur 0 1018 -0.7 41
2017-10-11 17:00:00 27.8 6 Sur 15 Sur 0 1018 -1.5 45
2017-10-11 16:00:00 27.1 9 Sur 16 Sudeste 0 1018.4 -1.3 42
2017-10-11 15:00:00 27.8 7 Sudeste 16 Sur 0 1018.7 -0.9 39
2017-10-11 14:00:00 27.3 6 Sudeste 14 Sudeste 0 1019.5 0 41
2017-10-11 13:00:00 27.1 5 Sudeste 12 Sudeste 0 1019.7 0.6 43
2017-10-11 12:00:00 25 6 Este 13 Este 0 1019.6 1.2 47
2017-10-11 11:00:00 22.4 5 Este 15 Este 0 1019.5 1.8 56
2017-10-11 10:00:00 18 0 Calma 8 Nordeste 0 1019.1 1.3 71
2017-10-11 09:00:00 15.1 0 Calma 7 Norte 0 1018.4 0.4 78
2017-10-11 08:00:00 14.7 3 Norte 6 Noroeste 0 1017.7 -0.4 82
2017-10-11 07:00:00 14.9 0 Calma 8 Norte 0 1017.8 -0.5 83
2017-10-11 06:00:00 15.6 0 Calma 9 Norte 0 1018 -0.2 77
2017-10-11 05:00:00 15.4 3 Norte 8 Nordeste 0 1018.1 -0.3 80
2017-10-11 04:00:00 15.4 2 Norte 6 Norte 0 1018.3 -0.3 83
2017-10-11 03:00:00 15.7 2 Norte 6 Norte 0 1018.2 -0.4 91
2017-10-11 02:00:00 16.1 0 Calma 4 Norte 0 1018.4 0.1 95
2017-10-11 01:00:00 16.9 0 Calma 3 Noroeste 0 1018.6 0.7 96
2017-10-11 00:00:00 17.9 0 Calma 4 Nordeste 0 1018.6 1.3 95
2017-10-10 23:00:00 18.7 0 Calma 3 Noroeste 0 1018.3 1.4 92
2017-10-10 22:00:00 20.4 0 Calma 5 Sudoeste 0 1017.9 1.3 85
2017-10-10 21:00:00 21.5 3 Sudoeste 6 Sudoeste 0 1017.3 0.6 75
2017-10-10 20:00:00 23.1 3 Sudoeste 6 Sudoeste 0 1016.9 0.1 67
2017-10-10 19:00:00 24.9 3 Sur 9 Sudoeste 0 1016.6 -0.4 58
2017-10-10 18:00:00 24.5 8 Sur 12 Sudoeste 0 1016.7 -0.8 66
2017-10-10 17:00:00 25.9 4 Sudoeste 13 Sur 0 1016.8 -1.2 59
2017-10-10 16:00:00 26.4 6 Sur 13 Sur 0 1017 -1.4 60
2017-10-10 15:00:00 25.3 9 Sur 16 Sur 0 1017.5 -0.7 62
2017-10-10 14:00:00 25.1 10 Sudeste 19 Sudeste 0 1018 -0.1 67
2017-10-10 13:00:00 24.1 7 Sudeste 14 Sudeste 0 1018.4 0.6 74
2017-10-10 12:00:00 23.6 4 Este 11 Este 0 1018.2 1.3 63
2017-10-10 11:00:00 20.4 2 Norte 5 Norte 0 1018.1 1.5 54
2017-10-10 10:00:00 17 0 Calma 7 Nordeste 0 1017.8 1.6 70
2017-10-10 09:00:00 14.1 0 Calma 7 Nordeste 0 1016.9 0.8 76
2017-10-10 08:00:00 13.9 0 Calma 5 Nordeste 0 1016.6 0.5 78
2017-10-10 07:00:00 14.8 0 Calma 5 Nordeste 0 1016.2 -0.2 81
2017-10-10 06:00:00 15.7 2 Nordeste 6 Nordeste 0 1016.1 -0.6 81
2017-10-10 05:00:00 16.1 3 Nordeste 5 Nordeste 0 1016.1 -0.4 87
2017-10-10 04:00:00 16.9 0 Calma 3 Este 0 1016.4 -0.2 90
2017-10-10 03:00:00 18.2 2 Nordeste 7 Este 0 1016.7 0 82
2017-10-10 02:00:00 19.2 3 Nordeste 8 Norte 0 1016.5 -0.4 74
2017-10-10 01:00:00 19 0 Calma 10 Noroeste 0 1016.6 0 89
2017-10-10 00:00:00 19.6 3 Norte 8 Norte 0 1016.7 0.1 91
2017-10-09 23:00:00 20.7 3 Oeste 8 Oeste 0 1016.9 0.6 89
2017-10-09 22:00:00 21.6 0 Calma 10 Sudoeste 0 1016.6 0.4 89
2017-10-09 21:00:00 22.5 3 Oeste 14 Oeste 0 1016.6 0.3 86
2017-10-09 20:00:00 23.4 8 Oeste 17 Sudoeste 0 1016.3 -0.3 81
2017-10-09 19:00:00 24.9 9 Sudoeste 18 Sudoeste 0 1016.2 -0.6 70
2017-10-09 18:00:00 25.8 12 Sudoeste 21 Sudoeste 0 1016.3 -1.1 66
2017-10-09 17:00:00 26.6 12 Sudoeste 20 Sudoeste 0 1016.6 -1.4 64
2017-10-09 16:00:00 26.3 12 Sudoeste 22 Sur 0 1016.8 -1.6 66
2017-10-09 15:00:00 26 12 Sudoeste 19 Sur 0 1017.4 -1.2 59
2017-10-09 14:00:00 26.8 9 Sudoeste 15 Sudoeste 0 1018 -0.2 56
2017-10-09 13:00:00 26 8 Sudoeste 16 Sudoeste 0 1018.4 0.2 57
2017-10-09 12:00:00 26.4 6 Sudoeste 12 Sudoeste 0 1018.6 1.2 56
2017-10-09 11:00:00 23.9 3 Noroeste 10 Nordeste 0 1018.2 1.2 57
2017-10-09 10:00:00 20.6 2 Sur 10 Sur 0 1018.2 1.4 73
2017-10-09 09:00:00 17.5 0 Calma 7 Oeste 0 1017.4 0.9 83
2017-10-09 08:00:00 17.6 4 Norte 8 Norte 0 1017 0.4 82
2017-10-09 07:00:00 19.7 4 Noroeste 17 Noroeste 0 1016.8 -0.3 71
2017-10-09 06:00:00 20.5 7 Noroeste 17 Norte 0 1016.5 -1 69
2017-10-09 05:00:00 20 6 Norte 16 Noroeste 0 1016.6 -0.9 73
2017-10-09 04:00:00 17.5 0 Calma 5 Norte 0 1017.1 -0.5 87
2017-10-09 03:00:00 17.9 0 Calma 5 Noroeste 0 1017.5 -0.1 82
2017-10-09 02:00:00 18.9 4 Noroeste 8 Noroeste 0 1017.5 0.3 82
2017-10-09 01:00:00 19.1 2 Noroeste 5 Oeste 0 1017.6 0.6 83
2017-10-09 00:00:00 20.2 0 Calma 9 Oeste 0 1017.6 0.9 79
2017-10-08 23:00:00 21.3 5 Oeste 10 Sudoeste 0 1017.2 0.7 79
2017-10-08 22:00:00 22.2 7 Oeste 14 Oeste 0 1017 0.5 81
2017-10-08 21:00:00 22.7 6 Sudoeste 16 Oeste 0 1016.7 0.3 72
2017-10-08 20:00:00 24.1 8 Oeste 15 Sudoeste 0 1016.5 -0.2 60
2017-10-08 19:00:00 26.1 7 Sudoeste 17 Sudoeste 0 1016.5 -0.7 52
2017-10-08 18:00:00 27.1 10 Sudoeste 17 Sudoeste 0 1016.4 -1.2 48
2017-10-08 17:00:00 27.4 9 Sudoeste 15 Sudoeste 0 1016.7 -1.7 46
2017-10-08 16:00:00 27.5 7 Sudoeste 14 Sur 0 1017.2 -1.5 44
2017-10-08 15:00:00 27.8 6 Sur 16 Sur 0 1017.6 -1.1 43
2017-10-08 14:00:00 27.8 7 Este 18 Este 0 1018.4 -0.1 45
2017-10-08 13:00:00 26.7 6 Este 16 Este 0 1018.7 0.5 48
2017-10-08 12:00:00 25.1 6 Este 14 Este 0 1018.7 1.2 57
2017-10-08 11:00:00 22.8 2 Norte 8 Norte 0 1018.5 1.2 77
2017-10-08 10:00:00 19 0 Calma 4 Norte 0 1018.2 1 99
2017-10-08 09:00:00 16.8 0 Calma 4 Este 0 1017.5 0.6 99
2017-10-08 08:00:00 16.8 0 Calma 4 Norte 0 1017.3 0.4 99
2017-10-08 07:00:00 17.2 0 Calma 6 Norte 0 1017.2 0.3 99
2017-10-08 06:00:00 17.6 2 Noroeste 4 Noroeste 0 1016.9 -0.2 99
2017-10-08 05:00:00 18.1 2 Noroeste 6 Noroeste 0 1016.9 -0.2 99
2017-10-08 04:00:00 18.2 0 Calma 4 Noroeste 0 1016.9 -0.5 99
2017-10-08 03:00:00 18.2 0 Calma 0 Calma 0 1017.1 -0.1 99
2017-10-08 02:00:00 18.8 0 Calma 0 Calma 0 1017.1 0.3 99
2017-10-08 01:00:00 19.2 0 Calma 3 Norte 0 1017.4 1 98
2017-10-08 00:00:00 19.8 0 Calma 4 Oeste 0 1017.2 1.1 95
2017-10-07 23:00:00 20.6 0 Calma 8 Oeste 0 1016.8 0.9 93
2017-10-07 22:00:00 21.2 4 Oeste 13 Oeste 0 1016.4 1 92
2017-10-07 21:00:00 21.9 7 Oeste 14 Sudoeste 0 1016.1 0.8 92
2017-10-07 20:00:00 22.8 8 Sudoeste 21 Oeste 0 1015.9 0.5 89
2017-10-07 19:00:00 23.9 11 Sudoeste 20 Sudoeste 0 1015.4 -0.3 84
2017-10-07 18:00:00 24.8 11 Sudoeste 19 Sudoeste 0 1015.3 -0.8 81
2017-10-07 17:00:00 25 9 Sudoeste 19 Sudoeste 0 1015.4 -1 77
2017-10-07 16:00:00 26 9 Sur 22 Sur 0 1015.7 -0.8 71
2017-10-07 15:00:00 26.6 11 Sur 20 Sur 0 1016.1 -0.2 54
2017-10-07 14:00:00 26 9 Sur 15 Sur 0 1016.4 0.4 56
2017-10-07 13:00:00 26.3 8 Sudeste 16 Sur 0 1016.5 0.9 53
2017-10-07 12:00:00 26.7 7 Sur 13 Sur 0 1016.3 1 48
2017-10-07 11:00:00 23.9 2 Norte 6 Norte 0 1016 1 52
2017-10-07 10:00:00 21.4 0 Calma 8 Norte 0 1015.6 0.9 67
2017-10-07 09:00:00 16.4 0 Calma 5 Norte 0 1015.3 0.8 89
2017-10-07 08:00:00 17.3 3 Nordeste 5 Nordeste 0 1015 0.6 93
2017-10-07 07:00:00 17.8 3 Noroeste 9 Noroeste 0 1014.7 -0.1 91
2017-10-07 06:00:00 18.7 3 Noroeste 8 Oeste 0 1014.5 -0.3 86
2017-10-07 05:00:00 18.4 0 Calma 12 Nordeste 0 1014.4 -0.9 71
2017-10-07 04:00:00 18 0 Calma 9 Norte 0 1014.8 -0.9 81
2017-10-07 03:00:00 18 2 Nordeste 4 Nordeste 0 1014.8 -1 93
2017-10-07 02:00:00 18.6 2 Este 4 Este 0 1015.3 -0.1 93
2017-10-07 01:00:00 19.2 0 Calma 5 Norte 0 1015.7 0.2 91
2017-10-07 00:00:00 19.5 0 Calma 5 Norte 0 1015.8 0.5 87
2017-10-06 23:00:00 20.6 0 Calma 8 Noroeste 0 1015.4 0 80
2017-10-06 22:00:00 21.8 5 Oeste 10 Oeste 0 1015.5 -0.1 83
2017-10-06 21:00:00 22.2 6 Sudoeste 15 Oeste 0 1015.3 -0.5 70
2017-10-06 20:00:00 23.5 8 Sudoeste 15 Sudoeste 0 1015.4 -0.7 61
2017-10-06 19:00:00 26.1 8 Sudoeste 14 Sudoeste 0 1015.6 -1 54
2017-10-06 18:00:00 27.1 8 Sudoeste 15 Sudoeste 0 1015.8 -1.4 51
2017-10-06 17:00:00 26.8 8 Sudoeste 14 Sur 0 1016.1 -1.6 58
2017-10-06 16:00:00 26.6 9 Sur 16 Sur 0 1016.6 -1.5 59
2017-10-06 15:00:00 27 9 Sudoeste 15 Sur 0 1017.2 -0.9 54
2017-10-06 14:00:00 27 9 Sur 16 Sur 0 1017.7 0 54
2017-10-06 13:00:00 26.7 8 Sur 13 Sur 0 1018.1 0.5 53
2017-10-06 12:00:00 28.1 3 Sur 10 Sur 0 1018.1 1 48
2017-10-06 11:00:00 24.4 0 Calma 7 Norte 0 1017.7 0.6 59
2017-10-06 10:00:00 20.4 0 Calma 5 Este 0 1017.6 0.7 79
2017-10-06 09:00:00 16.5 0 Calma 6 Noroeste 0 1017.1 0.2 90
2017-10-06 08:00:00 16.8 0 Calma 9 Noroeste 0 1017.1 0 87
2017-10-06 07:00:00 16.7 4 Noroeste 7 Norte 0 1016.9 -0.2 92
2017-10-06 06:00:00 17.3 2 Norte 6 Norte 0 1016.9 -0.7 97
2017-10-06 05:00:00 17.9 0 Calma 5 Norte 0 1017.1 -0.6 95
2017-10-06 04:00:00 18.7 3 Noroeste 6 Noroeste 0 1017.1 -0.8 93
2017-10-06 03:00:00 18.8 3 Norte 6 Sur 0 1017.6 -0.5 90
2017-10-06 02:00:00 19.2 3 Noroeste 5 Oeste 0 1017.7 -0.1 85
2017-10-06 01:00:00 20.5 3 Oeste 6 Oeste 0 1017.9 0.4 81
2017-10-06 00:00:00 21.6 2 Oeste 9 Oeste 0 1018.1 0.9 80
2017-10-05 23:00:00 21.9 4 Sudoeste 10 Sudoeste 0 1017.8 1.2 80
2017-10-05 22:00:00 22.4 6 Sudoeste 10 Sudoeste 0 1017.5 1 77
2017-10-05 21:00:00 23.2 6 Sur 9 Sur 0 1017.2 0.4 67
2017-10-05 20:00:00 25.4 4 Sudoeste 9 Sudoeste 0 1016.6 -0.5 52
2017-10-05 19:00:00 27.3 6 Sudoeste 15 Sudoeste 0 1016.5 -1.3 50
2017-10-05 18:00:00 28 6 Sudoeste 12 Sudoeste 0 1016.8 -1.7 48
2017-10-05 17:00:00 27.8 9 Sudoeste 14 Sudoeste 0 1017.1 -2.2 51
2017-10-05 16:00:00 27.3 7 Sudoeste 15 Sur 0 1017.8 -1.8 50
2017-10-05 15:00:00 27.8 9 Sur 21 Sur 0 1018.5 -1.5 48
2017-10-05 14:00:00 27.9 10 Sur 23 Sudeste 0 1019.3 -0.5 47
2017-10-05 13:00:00 28.7 9 Este 17 Sudeste 0 1019.6 0 48
2017-10-05 12:00:00 27.6 8 Este 19 Nordeste 0 1020 0.6 52
2017-10-05 11:00:00 25.4 5 Nordeste 15 Nordeste 0 1019.8 0.4 61
2017-10-05 10:00:00 22.2 3 Nordeste 10 Este 0 1019.6 0.4 73
2017-10-05 09:00:00 18.7 2 Norte 8 Nordeste 0 1019.4 0.4 85
2017-10-05 08:00:00 18.2 3 Norte 7 Norte 0 1019.4 0.6 89
2017-10-05 07:00:00 18.2 0 Calma 5 Norte 0 1019.2 0.1 89
2017-10-05 06:00:00 18.5 0 Calma 5 Norte 0 1019 -0.6 89
2017-10-05 05:00:00 19.1 0 Calma 7 Noroeste 0 1018.8 -1 85
2017-10-05 04:00:00 19.5 2 Norte 7 Noroeste 0 1019.1 -1 85
2017-10-05 03:00:00 19.7 0 Calma 5 Noroeste 0 1019.6 -0.6 84
2017-10-05 02:00:00 20.1 3 Noroeste 8 Noroeste 0 1019.8 -0.6 82
2017-10-05 01:00:00 20.4 3 Noroeste 5 Noroeste 0 1020.1 0.4 79
2017-10-05 00:00:00 21.6 0 Calma 13 Sur 0 1020.2 1 71
2017-10-04 23:00:00 22.4 6 Noroeste 10 Noroeste 0 1020.4 1.6 77
2017-10-04 22:00:00 21.9 0 Calma 4 Sudoeste 0 1019.7 1.2 77
2017-10-04 21:00:00 23.1 0 Calma 6 Sur 0 1019.2 0.7 72
2017-10-04 20:00:00 25 4 Sudoeste 12 Sur 0 1018.8 0.3 63
2017-10-04 19:00:00 26.5 7 Sudoeste 14 Sur 0 1018.5 -0.3 56
2017-10-04 18:00:00 27.6 8 Sur 15 Sur 0 1018.5 -0.9 52
2017-10-04 17:00:00 28.4 6 Sudoeste 15 Sur 0 1018.5 -1.5 51
2017-10-04 16:00:00 29 7 Sur 16 Sur 0 1018.8 -1.5 50
2017-10-04 15:00:00 27.7 8 Sur 21 Este 0 1019.4 -0.7 51
2017-10-04 14:00:00 27.1 9 Este 20 Este 0 1020 0.1 53
2017-10-04 13:00:00 26.1 9 Sudeste 24 Sudeste 0 1020.3 0.8 56
2017-10-04 12:00:00 26 8 Sudeste 21 Este 0 1020.1 1.1 57
2017-10-04 11:00:00 25.2 2 Este 8 Este 0 1019.9 1.6 68
2017-10-04 10:00:00 21.4 2 Noroeste 7 Noroeste 0 1019.5 1.5 86
2017-10-04 09:00:00 18.1 3 Noroeste 5 Noroeste 0 1019 1.1 97
2017-10-04 08:00:00 18 0 Calma 6 Noroeste 0 1018.3 0.5 96
2017-10-04 07:00:00 18.5 2 Noroeste 4 Noroeste 0 1018 -0.2 96
2017-10-04 06:00:00 19 0 Calma 3 Noroeste 0 1017.9 -0.4 96
2017-10-04 05:00:00 19.5 0 Calma 2 Sudoeste 0 1017.8 -0.7 96
2017-10-04 04:00:00 20 0 Calma 6 Sur 0 1018.2 -0.5 90
2017-10-04 03:00:00 19.8 2 Sur 6 Sudoeste 0 1018.3 -0.3 87
2017-10-04 02:00:00 20.1 0 Calma 4 Sudeste 0 1018.5 -0.1 79
2017-10-04 01:00:00 20.8 0 Calma 5 Sudoeste 0 1018.7 0.8 76
2017-10-04 00:00:00 21.6 2 Sudoeste 6 Oeste 0 1018.6 1.5 72
2017-10-03 23:00:00 22.3 2 Oeste 9 Oeste 0 1018.6 1.8 70
2017-10-03 22:00:00 22.8 5 Oeste 9 Sudoeste 0 1017.9 1.3 68
2017-10-03 21:00:00 23.5 4 Sudoeste 9 Oeste 0 1017.1 0.5 61
2017-10-03 20:00:00 25 5 Oeste 15 Sudoeste 0 1016.8 -0.1 57
2017-10-03 19:00:00 26.5 8 Sudoeste 15 Sudoeste 0 1016.6 -0.9 51
2017-10-03 18:00:00 27.5 8 Sudoeste 16 Sudoeste 0 1016.6 -1.7 48
2017-10-03 17:00:00 28.1 10 Sudoeste 18 Sur 0 1016.9 -1.9 48
2017-10-03 16:00:00 27.2 12 Sur 21 Sur 0 1017.5 -2.1 47
2017-10-03 15:00:00 28.6 12 Sur 21 Sur 0 1018.3 -1.7 43
2017-10-03 14:00:00 29.3 9 Sudeste 18 Sudeste 0 1018.8 -0.9 46
2017-10-03 13:00:00 29 4 Este 14 Este 0 1019.6 0.4 49
2017-10-03 12:00:00 27.5 6 Este 18 Este 0 1020 1.3 56
2017-10-03 11:00:00 25.6 6 Este 14 Este 0 1019.7 1.4 62
2017-10-03 10:00:00 21.8 3 Norte 9 Nordeste 0 1019.2 1.3 80
2017-10-03 09:00:00 18.2 0 Calma 5 Norte 0 1018.7 0.9 93
2017-10-03 08:00:00 18.5 0 Calma 9 Norte 0 1018.3 0.3 93
2017-10-03 07:00:00 18.3 0 Calma 6 Norte 0 1017.9 -0.6 94
2017-10-03 06:00:00 18.6 2 Norte 6 Noroeste 0 1017.8 -1.1 92
2017-10-03 05:00:00 19.4 4 Noroeste 8 Noroeste 0 1018 -1.2 91
2017-10-03 04:00:00 19.4 3 Noroeste 5 Noroeste 0 1018.5 -0.9 91
2017-10-03 03:00:00 20.1 0 Calma 6 Sudoeste 0 1018.9 -0.6 87
2017-10-03 02:00:00 21 5 Sur 13 Sur 0 1019.2 -0.3 80
2017-10-03 01:00:00 20.4 3 Sudeste 6 Sudeste 0 1019.4 0.4 86
2017-10-03 00:00:00 21.5 0 Calma 8 Sur 0 1019.5 0.9 80
2017-10-02 23:00:00 22 2 Sur 6 Sudeste 0 1019.5 1.5 76
2017-10-02 22:00:00 22.7 3 Sudoeste 10 Sudoeste 0 1019 1.6 71
2017-10-02 21:00:00 23.3 6 Sudoeste 10 Sudoeste 0 1018.6 1.4 67
2017-10-02 20:00:00 24.8 5 Sudoeste 15 Sudoeste 0 1018 0.3 60
2017-10-02 19:00:00 27.2 8 Sudoeste 15 Oeste 0 1017.4 -0.6 48
2017-10-02 18:00:00 28.6 9 Sudoeste 16 Sudoeste 0 1017.2 -1.5 47
2017-10-02 17:00:00 28.4 9 Sudoeste 18 Sudoeste 0 1017.7 -1.6 48
2017-10-02 16:00:00 27.9 9 Sudoeste 19 Sur 0 1018 -1.6 47
2017-10-02 15:00:00 28.1 10 Sur 18 Sudeste 0 1018.7 -1.3 47
2017-10-02 14:00:00 29.5 5 Sur 15 Sur 0 1019.3 -0.6 46
2017-10-02 13:00:00 27.9 7 Sudeste 15 Este 0 1019.6 0 48
2017-10-02 12:00:00 27.3 6 Este 14 Este 0 1020 0.8 50
2017-10-02 11:00:00 24.1 3 Noroeste 9 Noroeste 0 1019.9 1.1 53
2017-10-02 10:00:00 20.8 0 Calma 5 Noroeste 0 1019.6 1 79
2017-10-02 09:00:00 17.1 0 Calma 6 Norte 0 1019.2 0.8 96
2017-10-02 08:00:00 16.7 0 Calma 5 Norte 0 1018.8 0.6 96
2017-10-02 07:00:00 17.2 0 Calma 5 Noroeste 0 1018.6 0.3 95
2017-10-02 06:00:00 17.5 3 Noroeste 7 Noroeste 0 1018.4 0.2 96
2017-10-02 05:00:00 17.9 2 Noroeste 6 Norte 0 1018.2 0.2 96
2017-10-02 04:00:00 18.7 5 Este 10 Este 0 1018.3 0.7 96
2017-10-02 03:00:00 18.3 0 Calma 5 Nordeste 0 1018.2 0.6 95
2017-10-02 02:00:00 18.9 3 Nordeste 8 Nordeste 0 1018 0.8 91
2017-10-02 01:00:00 19.5 5 Nordeste 8 Este 0 1017.6 0.7 92
2017-10-02 00:00:00 20.4 3 Este 6 Sudeste 0 1017.6 0.8 89
2017-10-01 23:00:00 21.2 2 Oeste 9 Sudoeste 0 1017.2 0.6 83
2017-10-01 22:00:00 22.2 3 Sudoeste 12 Sudoeste 0 1016.9 0.5 78
2017-10-01 21:00:00 23 5 Sudoeste 14 Sudoeste 0 1016.8 0.4 68
2017-10-01 20:00:00 23.8 8 Sudoeste 16 Oeste 0 1016.6 0 62
2017-10-01 19:00:00 25.4 10 Sudoeste 19 Sudoeste 0 1016.4 -0.4 57
2017-10-01 18:00:00 26.1 12 Sudoeste 20 Sudoeste 0 1016.4 -0.9 56
2017-10-01 17:00:00 26.4 11 Sudoeste 19 Sur 0 1016.6 -1.3 56
2017-10-01 16:00:00 26.8 9 Sur 17 Sur 0 1016.8 -0.9 54
2017-10-01 15:00:00 27.8 10 Sur 19 Sur 0 1017.3 -0.9 47
2017-10-01 14:00:00 28.9 7 Sudeste 15 Sudeste 0 1017.9 -0.1 42
2017-10-01 13:00:00 29.6 5 Este 11 Este 0 1017.7 0 43
2017-10-01 12:00:00 25.9 5 Norte 20 Noroeste 0 1018.2 1 50
2017-10-01 11:00:00 22.6 6 Norte 21 Noroeste 0 1018 1.2 56
2017-10-01 10:00:00 20 8 Noroeste 25 Norte 0 1017.7 1.3 62
2017-10-01 09:00:00 17.9 9 Noroeste 27 Norte 0 1017.2 0.7 63
2017-10-01 08:00:00 17.9 10 Norte 26 Norte 0 1016.8 0.6 61
2017-10-01 07:00:00 18 11 Norte 28 Norte 0 1016.4 0.1 59
2017-10-01 06:00:00 18.3 12 Noroeste 36 Norte 0 1016.5 -0.6 57
2017-10-01 05:00:00 18.7 14 Noroeste 30 Noroeste 0 1016.2 -0.8 56
2017-10-01 04:00:00 19 12 Norte 28 Norte 0 1016.3 -0.4 54
2017-10-01 03:00:00 20 12 Noroeste 30 Noroeste 0 1017.1 -0.2 51
2017-10-01 02:00:00 21.2 16 Noroeste 36 Noroeste 0 1017 -0.3 50
2017-10-01 01:00:00 22.3 12 Noroeste 24 Noroeste 0 1016.7 0 50
2017-10-01 00:00:00 23.6 10 Noroeste 25 Noroeste 0 1017.3 0.6 49
2017-09-30 23:00:00 24.9 10 Noroeste 23 Noroeste 0 1017.3 1 51
2017-09-30 22:00:00 25.7 9 Noroeste 19 Norte 0 1016.7 0.8 57
2017-09-30 21:00:00 23.1 2 Sudoeste 12 Oeste 0 1016.7 0.5 70
2017-09-30 20:00:00 24.1 8 Oeste 15 Oeste 0 1016.3 -0.5 66
2017-09-30 19:00:00 25 8 Sudoeste 20 Sudoeste 0 1015.9 -1.2 66
2017-09-30 18:00:00 25.9 13 Sudoeste 22 Sudoeste 0 1016.2 -1.6 60
2017-09-30 17:00:00 26.8 11 Sudoeste 21 Sudoeste 0 1016.8 -1.6 56
2017-09-30 16:00:00 26.5 11 Sudoeste 23 Sudoeste 0 1017.1 -2.2 53
2017-09-30 15:00:00 26.7 11 Sudoeste 20 Sur 0 1017.8 -1.9 53
2017-09-30 14:00:00 27.5 11 Sur 17 Sur 0 1018.4 -1.1 50
2017-09-30 13:00:00 27.3 0 Calma 8 Este 0 1019.3 -0.2 56
2017-09-30 12:00:00 25.4 2 Norte 14 Norte 0 1019.7 0.5 63
2017-09-30 11:00:00 23.1 4 Norte 17 Norte 0 1019.5 0.6 73
2017-09-30 10:00:00 21.1 4 Norte 14 Noroeste 0 1019.5 0.9 80
2017-09-30 09:00:00 19.1 4 Norte 12 Norte 0 1019.2 0.7 82
2017-09-30 08:00:00 18.8 0 Calma 9 Noroeste 0 1018.9 0.6 79
2017-09-30 07:00:00 19.8 6 Norte 15 Noroeste 0 1018.6 0.1 75
2017-09-30 06:00:00 19.7 6 Noroeste 11 Noroeste 0 1018.5 0.3 75
2017-09-30 05:00:00 18.3 0 Calma 5 Norte 0 1018.3 -0.1 80
2017-09-30 04:00:00 19.4 2 Sudeste 7 Sur 0 1018.5 -0.2 70
2017-09-30 03:00:00 20.1 3 Sudoeste 8 Noroeste 0 1018.2 -0.8 70
2017-09-30 02:00:00 19.9 0 Calma 7 Oeste 0 1018.4 -0.4 73
2017-09-30 01:00:00 20.4 3 Sudoeste 6 Sudoeste 0 1018.7 0.3 79
2017-09-30 00:00:00 21.3 4 Sudoeste 8 Oeste 0 1019 0.8 70
2017-09-29 23:00:00 22 3 Sudoeste 19 Sudoeste 0 1018.8 0.6 72
2017-09-29 22:00:00 22.8 10 Oeste 23 Oeste 0 1018.4 0.3 70
2017-09-29 21:00:00 23 11 Sudoeste 21 Oeste 0 1018.2 0.4 70
2017-09-29 20:00:00 24.1 9 Sudoeste 19 Oeste 0 1018.2 -0.3 60
2017-09-29 19:00:00 26 10 Sudoeste 19 Oeste 0 1018.1 -0.8 52
2017-09-29 18:00:00 27.2 11 Sudoeste 19 Sudoeste 0 1017.8 -1.6 46
2017-09-29 17:00:00 27.4 10 Sudoeste 17 Sudoeste 0 1018.5 -1.5 45
2017-09-29 16:00:00 26.5 11 Sudoeste 21 Sur 0 1018.9 -1.5 48
2017-09-29 15:00:00 26.9 14 Sur 23 Sur 0 1019.4 -1.5 46
2017-09-29 14:00:00 27.3 13 Sur 20 Sur 0 1020 -0.9 44
2017-09-29 13:00:00 27.7 8 Sur 15 Sur 0 1020.4 0 46
2017-09-29 12:00:00 26.2 3 Nordeste 13 Nordeste 0 1020.9 1 49
2017-09-29 11:00:00 23.3 3 Norte 14 Noroeste 0 1020.9 1.6 57
2017-09-29 10:00:00 21 3 Norte 16 Norte 0 1020.4 1.2 65
2017-09-29 09:00:00 18.7 2 Norte 12 Norte 0 1019.9 0.7 72
2017-09-29 08:00:00 18.5 2 Norte 10 Noroeste 0 1019.3 0.3 75
2017-09-29 07:00:00 17.9 0 Calma 6 Norte 0 1019.2 -0.4 77
2017-09-29 06:00:00 18.7 3 Nordeste 9 Norte 0 1019.2 -1 75
2017-09-29 05:00:00 18.2 0 Calma 8 Noroeste 0 1019 -1.8 80
2017-09-29 04:00:00 18.9 3 Noroeste 9 Noroeste 0 1019.6 -1.2 78
2017-09-29 03:00:00 19.5 4 Oeste 6 Sudoeste 0 1020.2 -0.7 75
2017-09-29 02:00:00 19.8 4 Oeste 6 Oeste 0 1020.8 0.3 73
2017-09-29 01:00:00 20.4 0 Calma 7 Norte 0 1020.8 0.7 72
2017-09-29 00:00:00 21 5 Noroeste 9 Oeste 0 1020.9 1.7 68
2017-09-28 23:00:00 22 0 Calma 5 Sudeste 0 1020.5 1.9 63
2017-09-28 22:00:00 22.6 4 Oeste 9 Oeste 0 1020.1 1.3 62
2017-09-28 21:00:00 23.1 4 Oeste 8 Sudoeste 0 1019.2 0.5 58
2017-09-28 20:00:00 25.2 3 Sudoeste 11 Sudoeste 0 1018.6 -0.2 51
2017-09-28 19:00:00 26.7 6 Sudoeste 15 Sudoeste 0 1018.8 -0.3 47
2017-09-28 18:00:00 27.4 9 Sudoeste 18 Sudoeste 0 1018.7 -1.2 46
2017-09-28 17:00:00 28.5 10 Sudoeste 17 Sudoeste 0 1018.8 -1.5 44
2017-09-28 16:00:00 28.4 8 Sudoeste 15 Sudoeste 0 1019.1 -1.4 44
2017-09-28 15:00:00 28.1 8 Sur 15 Sur 0 1019.9 -0.8 48
2017-09-28 14:00:00 28 8 Sur 17 Sur 0 1020.3 -0.2 47
2017-09-28 13:00:00 27.5 7 Sudeste 14 Sudeste 0 1020.5 0.3 49
2017-09-28 12:00:00 27.2 4 Este 10 Nordeste 0 1020.7 1.1 52
2017-09-28 11:00:00 24.1 3 Norte 9 Noroeste 0 1020.5 1.4 62
2017-09-28 10:00:00 21.3 3 Norte 12 Norte 0 1020.2 1.4 70
2017-09-28 09:00:00 20.2 2 Nordeste 10 Norte 0 1019.6 0.9 70
2017-09-28 08:00:00 20.5 3 Norte 10 Norte 0 1019.1 0.3 66
2017-09-28 07:00:00 20.7 2 Norte 13 Norte 0 1018.8 -0.1 63
2017-09-28 06:00:00 20.7 2 Norte 8 Norte 0 1018.7 -0.4 60
2017-09-28 05:00:00 20.9 2 Nordeste 9 Norte 0 1018.8 -0.3 61
2017-09-28 04:00:00 20.9 2 Norte 13 Norte 0 1018.9 0 71
2017-09-28 03:00:00 20.4 0 Calma 5 Norte 0 1019.1 -0.3 80
2017-09-28 02:00:00 21.5 0 Calma 6 Nordeste 0 1019.1 0 76
2017-09-28 01:00:00 22.6 0 Calma 10 Noroeste 0 1018.9 0 73
2017-09-28 00:00:00 22.5 0 Calma 11 Noroeste 0 1019.4 1 76
2017-09-27 23:00:00 22.8 4 Noroeste 11 Noroeste 0 1019.1 1.3 75
2017-09-27 22:00:00 21.9 2 Noroeste 5 Noroeste 0 1018.9 1.5 80
2017-09-27 21:00:00 22.3 0 Calma 0 Calma 0 1018.4 0.8 74
2017-09-27 20:00:00 23.5 0 Calma 3 Sur 0 1017.8 0.2 70
2017-09-27 19:00:00 23.7 0 Calma 9 Sur 0 1017.4 -0.5 63
2017-09-27 18:00:00 24.6 2 Sudeste 15 Este 0 1017.6 -0.5 60
2017-09-27 17:00:00 25.9 3 Este 14 Este 0 1017.6 -1.2 58
2017-09-27 16:00:00 24.2 3 Nordeste 7 Nordeste 0 1017.9 -1.1 59
2017-09-27 15:00:00 23.5 2 Norte 7 Este 0 1018.1 -1 66
2017-09-27 14:00:00 22.4 2 Este 14 Este 0 1018.8 0 80
2017-09-27 13:00:00 21 8 Este 15 Este 0 1019 0.5 86
2017-09-27 12:00:00 20.3 6 Este 15 Este 0 1019.1 1 91
2017-09-27 11:00:00 19.6 4 Este 12 Este 0 1018.8 1.5 90
2017-09-27 10:00:00 18.8 5 Este 12 Este 0 1018.5 1.4 92
2017-09-27 09:00:00 17.5 2 Nordeste 9 Este 0 1018.1 0.8 96
2017-09-27 08:00:00 17.2 5 Nordeste 10 Nordeste 0 1017.3 0.6 94
2017-09-27 07:00:00 17.4 4 Nordeste 12 Nordeste 0 1017.1 0.2 93
2017-09-27 06:00:00 16.8 0 Calma 6 Nordeste 0 1017.3 0.3 94
2017-09-27 05:00:00 16.9 0 Calma 6 Nordeste 0 1016.7 0 93
2017-09-27 04:00:00 16.9 3 Este 6 Nordeste 0 1016.9 -0.1 95
2017-09-27 03:00:00 16.9 3 Nordeste 11 Este 0 1017 -0.4 95
2017-09-27 02:00:00 17 3 Este 5 Este 0 1016.7 -0.7 98
2017-09-27 01:00:00 17.5 0 Calma 4 Oeste 0 1017 0.2 98
2017-09-27 00:00:00 18.3 0 Calma 10 Sudoeste 0 1017.4 1.1 95
2017-09-26 23:00:00 19.2 5 Oeste 12 Oeste 0 1017.4 1.3 93
2017-09-26 22:00:00 19.4 4 Sudoeste 10 Sudoeste 0 1016.8 0.8 83
2017-09-26 21:00:00 20.4 5 Sudoeste 14 Sudoeste 0 1016.3 0.4 75
2017-09-26 20:00:00 21.4 7 Sudoeste 17 Sudoeste 0 1016.1 0.1 64
2017-09-26 19:00:00 23.4 9 Sudoeste 20 Oeste 0 1016 -0.7 54
2017-09-26 18:00:00 25 12 Sudoeste 23 Sudoeste 0 1015.9 -1.1 46
2017-09-26 17:00:00 25.4 13 Sudoeste 28 Sudoeste 0 1016 -1.5 47
2017-09-26 16:00:00 25.5 15 Sudoeste 31 Sudoeste 0 1016.7 -1.5 50
2017-09-26 15:00:00 25 15 Sudoeste 27 Sudoeste 0 1017 -1.4 52
2017-09-26 14:00:00 26.9 4 Noroeste 15 Noroeste 0 1017.5 -0.9 47
2017-09-26 13:00:00 23.8 7 Noroeste 16 Noroeste 0 1018.2 0.4 55
2017-09-26 12:00:00 22.1 7 Noroeste 25 Norte 0 1018.4 0.3 64
2017-09-26 11:00:00 19.6 8 Noroeste 27 Norte 0 1018.4 0.4 73
2017-09-26 10:00:00 17 14 Noroeste 30 Norte 0 1017.8 0 80
2017-09-26 09:00:00 15.1 8 Noroeste 23 Norte 0 1018.1 0.1 83
2017-09-26 08:00:00 15.6 9 Noroeste 22 Noroeste 0 1018 -0.1 79
2017-09-26 07:00:00 16 5 Norte 22 Norte 0 1017.8 -0.7 74
2017-09-26 06:00:00 16.7 6 Norte 32 Norte 0 1018 -0.8 69
2017-09-26 05:00:00 17.7 12 Noroeste 34 Norte 0 1018.1 -0.7 65
2017-09-26 04:00:00 18.6 12 Noroeste 35 Noroeste 0 1018.5 -0.6 61
2017-09-26 03:00:00 19.7 12 Noroeste 33 Noroeste 0 1018.8 -0.2 56
2017-09-26 02:00:00 21.1 12 Noroeste 26 Noroeste 0 1018.8 0 52
2017-09-26 01:00:00 21.9 9 Noroeste 22 Noroeste 0 1019.1 0.9 52
2017-09-26 00:00:00 23.2 11 Noroeste 25 Noroeste 0 1019 1 52
2017-09-25 23:00:00 22.1 6 Noroeste 13 Norte 0 1018.8 1 56
2017-09-25 22:00:00 20.4 3 Oeste 7 Oeste 0 1018.2 0.5 83
2017-09-25 21:00:00 21.6 6 Oeste 20 Sudoeste 0 1018 0.4 78
2017-09-25 20:00:00 23 14 Sudoeste 30 Sudoeste 0 1017.8 -0.2 66
2017-09-25 19:00:00 24.8 15 Sudoeste 32 Oeste 0 1017.7 -0.8 58
2017-09-25 18:00:00 26.7 14 Sudoeste 30 Sudoeste 0 1017.6 -1.4 55
2017-09-25 17:00:00 27.4 15 Sudoeste 27 Sudoeste 0 1018 -1.7 52
2017-09-25 16:00:00 28.2 12 Sudoeste 27 Sudoeste 0 1018.5 -1.6 48
2017-09-25 15:00:00 29.7 2 Noroeste 21 Norte 0 1019 -1.6 40
2017-09-25 14:00:00 29 9 Norte 22 Noroeste 0 1019.7 -0.8 41
2017-09-25 13:00:00 27.4 9 Norte 23 Norte 0 1020.1 -0.2 47
2017-09-25 12:00:00 25.5 7 Noroeste 22 Noroeste 0 1020.6 0.8 53
2017-09-25 11:00:00 22.5 6 Norte 19 Norte 0 1020.5 1 71
2017-09-25 10:00:00 20.8 5 Norte 19 Noroeste 0 1020.3 1.2 82
2017-09-25 09:00:00 18.9 6 Noroeste 17 Noroeste 0 1019.8 0.7 87
2017-09-25 08:00:00 17.9 3 Nordeste 10 Norte 0 1019.5 0.5 85
2017-09-25 07:00:00 18.7 4 Norte 22 Noroeste 0 1019.1 0 79
2017-09-25 06:00:00 19 6 Noroeste 19 Norte 0 1019.1 -0.1 72
2017-09-25 05:00:00 19.4 5 Norte 20 Noroeste 0 1019 -0.4 65
2017-09-25 04:00:00 20 8 Norte 26 Noroeste 0 1019.1 -0.2 56
2017-09-25 03:00:00 20.7 8 Norte 21 Noroeste 0 1019.2 -0.3 46
2017-09-25 02:00:00 21.3 7 Noroeste 21 Noroeste 0 1019.4 0.1 37
2017-09-25 01:00:00 22.2 10 Noroeste 26 Norte 0 1019.3 0.4 37
2017-09-25 00:00:00 23.1 12 Noroeste 27 Noroeste 0 1019.5 1.1 48
2017-09-24 23:00:00 21.6 6 Noroeste 14 Norte 0 1019.3 0.9 70
2017-09-24 22:00:00 21.7 4 Oeste 19 Oeste 0 1018.9 0.4 82
2017-09-24 21:00:00 22.4 10 Oeste 21 Oeste 0 1018.4 -0.4 74
2017-09-24 20:00:00 23.8 11 Sudoeste 22 Sudoeste 0 1018.4 -0.7 67
2017-09-24 19:00:00 25.7 12 Sudoeste 25 Sudoeste 0 1018.5 -0.9 57
2017-09-24 18:00:00 26.6 14 Sudoeste 23 Sudoeste 0 1018.8 -0.8 52
2017-09-24 17:00:00 27 11 Sudoeste 19 Sudoeste 0 1019.1 -0.7 51
2017-09-24 16:00:00 27 10 Sudoeste 18 Sudoeste 0 1019.4 -0.4 50
2017-09-24 15:00:00 28.2 9 Sudoeste 19 Sudoeste 0 1019.6 -0.3 48
2017-09-24 14:00:00 27.6 9 Sudoeste 17 Sur 0 1019.8 -0.2 48
2017-09-24 13:00:00 27.7 8 Sur 16 Sudoeste 0 1019.8 0.4 48
2017-09-24 12:00:00 25.2 2 Norte 9 Noroeste 0 1019.9 0.8 55
2017-09-24 11:00:00 22.2 3 Norte 12 Noroeste 0 1020 1.2 64
2017-09-24 10:00:00 19.6 5 Norte 12 Noroeste 0 1019.4 1.1 78
2017-09-24 09:00:00 16 4 Noroeste 7 Noroeste 0 1019.1 1 95
2017-09-24 08:00:00 15.5 2 Norte 5 Noroeste 0 1018.8 0.8 93
2017-09-24 07:00:00 16.1 2 Nordeste 7 Este 0 1018.3 0.2 89
2017-09-24 06:00:00 17.3 4 Nordeste 6 Noroeste 0 1018.1 -0.3 85
2017-09-24 05:00:00 17.5 0 Calma 5 Oeste 0 1018 -0.3 80
2017-09-24 04:00:00 19 0 Calma 12 Norte 0 1018.1 -0.5 75
2017-09-24 03:00:00 20.4 3 Noroeste 12 Noroeste 0 1018.4 -0.2 72
2017-09-24 02:00:00 20.7 4 Noroeste 13 Noroeste 0 1018.3 0.3 74
2017-09-24 01:00:00 21 4 Noroeste 15 Noroeste 0 1018.6 1.1 77
2017-09-24 00:00:00 21.6 6 Noroeste 13 Norte 0 1018.6 2.1 80
2017-09-23 23:00:00 20.8 0 Calma 6 Sudoeste 0 1018 1.7 85
2017-09-23 22:00:00 21.8 2 Sudoeste 10 Sudoeste 0 1017.5 1.5 80
2017-09-23 21:00:00 22.7 7 Sudoeste 16 Sudoeste 0 1016.5 0.3 71
2017-09-23 20:00:00 24.3 8 Sudoeste 15 Sudoeste 0 1016.3 0.2 64
2017-09-23 19:00:00 26.3 9 Sudoeste 17 Sudoeste 0 1016 -0.5 58
2017-09-23 18:00:00 26.8 9 Sudoeste 18 Sudoeste 0 1016.2 -1 56
2017-09-23 17:00:00 27.9 9 Sudoeste 21 Sur 0 1016.1 -1.5 53
2017-09-23 16:00:00 28 11 Sur 22 Sur 0 1016.5 -1.3 50
2017-09-23 15:00:00 28 11 Sur 19 Sur 0 1017.2 -0.7 50
2017-09-23 14:00:00 27.9 9 Sudeste 15 Sur 0 1017.6 -0.1 52
2017-09-23 13:00:00 27.2 6 Este 14 Este 0 1017.8 0.7 55
2017-09-23 12:00:00 26.1 6 Este 16 Nordeste 0 1017.9 1.4 58
2017-09-23 11:00:00 22.7 3 Noroeste 9 Nordeste 0 1017.7 1.7 65
2017-09-23 10:00:00 19.3 3 Norte 9 Noroeste 0 1017.1 1.6 76
2017-09-23 09:00:00 16.4 0 Calma 7 Norte 0 1016.5 1 85
2017-09-23 08:00:00 16 4 Nordeste 8 Nordeste 0 1016 0.3 83
2017-09-23 07:00:00 17 4 Norte 12 Noroeste 0 1015.5 -0.6 80
2017-09-23 06:00:00 16.6 3 Norte 8 Norte 0 1015.5 -0.9 85
2017-09-23 05:00:00 16 2 Noroeste 6 Noroeste 0 1015.7 -0.3 92
2017-09-23 04:00:00 16.6 2 Nordeste 5 Noroeste 0 1016.1 0.2 89
2017-09-23 03:00:00 16.6 0 Calma 6 Sur 0 1016.4 0.4 85
2017-09-23 02:00:00 17.2 2 Sudeste 9 Sur 0 1016 0.4 80
2017-09-23 01:00:00 17.1 0 Calma 8 Norte 0 1015.9 0.8 89
2017-09-23 00:00:00 18.4 0 Calma 6 Noroeste 0 1016 1.2 85
2017-09-22 23:00:00 18.9 3 Sudoeste 6 Oeste 0 1015.6 1.1 78
2017-09-22 22:00:00 19.3 4 Sudoeste 8 Sudoeste 0 1015.1 0.6 85
2017-09-22 21:00:00 20.1 5 Sudoeste 15 Sudoeste 0 1014.8 0.1 84
2017-09-22 20:00:00 21.5 8 Sudoeste 16 Sudoeste 0 1014.5 -0.7 76
2017-09-22 19:00:00 23 10 Sudoeste 20 Sudoeste 0 1014.5 -0.8 67
2017-09-22 18:00:00 24.4 12 Sudoeste 21 Sudoeste 0 1014.7 -1 56
2017-09-22 17:00:00 25.4 12 Sudoeste 20 Sudoeste 0 1015.2 -0.7 54
2017-09-22 16:00:00 25.2 12 Sudoeste 20 Sudoeste 0 1015.3 -1.1 56
2017-09-22 15:00:00 25.9 10 Sudoeste 18 Sudoeste 0 1015.7 -0.8 52
2017-09-22 14:00:00 27.3 0 Calma 13 Noroeste 0 1015.9 -0.5 46
2017-09-22 13:00:00 25.3 4 Norte 18 Noroeste 0 1016.4 0.4 54
2017-09-22 12:00:00 22.1 9 Norte 24 Noroeste 0 1016.5 0.7 65
2017-09-22 11:00:00 20.2 8 Noroeste 27 Noroeste 0 1016.4 1 73
2017-09-22 10:00:00 17.8 10 Noroeste 28 Norte 0 1016 1 82
2017-09-22 09:00:00 16.2 11 Noroeste 32 Norte 0 1015.8 0.9 89
2017-09-22 08:00:00 16.4 12 Noroeste 36 Noroeste 0 1015.4 0.2 89
2017-09-22 07:00:00 16.8 14 Noroeste 35 Norte 0 1015 -0.4 89
2017-09-22 06:00:00 17.4 14 Noroeste 28 Norte 0 1014.9 -0.4 88
2017-09-22 05:00:00 18 12 Noroeste 32 Norte 0 1015.2 0.1 85
2017-09-22 04:00:00 19 9 Noroeste 28 Noroeste 0 1015.4 0.3 80
2017-09-22 03:00:00 20.1 13 Noroeste 31 Norte 0 1015.3 0.3 75
2017-09-22 02:00:00 21 12 Noroeste 28 Noroeste 0 1015.1 0.3 71
2017-09-22 01:00:00 21.9 13 Noroeste 31 Noroeste 0 1015.1 0.9 65
2017-09-22 00:00:00 22.9 12 Noroeste 27 Norte 0 1015 1.2 60
2017-09-21 23:00:00 23.4 9 Noroeste 18 Norte 0 1014.8 1.2 57
2017-09-21 22:00:00 21.1 4 Oeste 8 Oeste 0 1014.2 0.5 57
2017-09-21 21:00:00 21.7 5 Sudoeste 13 Sudoeste 0 1013.8 -0.1 57
2017-09-21 20:00:00 23.6 8 Oeste 18 Oeste 0 1013.6 -0.5 57
2017-09-21 19:00:00 24 9 Sudoeste 28 Sudoeste 0 1013.7 -0.7 58
2017-09-21 18:00:00 24.7 14 Sudoeste 26 Oeste 0 1013.9 -0.9 56
2017-09-21 17:00:00 25.5 12 Sudoeste 24 Sudoeste 0 1014.1 -1.3 54
2017-09-21 16:00:00 24.8 13 Sudoeste 22 Sudoeste 0 1014.4 -1.1 57
2017-09-21 15:00:00 24.3 12 Sudoeste 20 Sur 0 1014.8 -0.9 57
2017-09-21 14:00:00 24.7 12 Sur 19 Sudoeste 0 1015.4 -0.4 53
2017-09-21 13:00:00 28.6 3 Oeste 11 Norte 0 1015.5 0.1 39
2017-09-21 12:00:00 25.2 5 Norte 14 Noroeste 0 1015.7 0.5 49
2017-09-21 11:00:00 22.5 4 Norte 15 Norte 0 1015.8 1 58
2017-09-21 10:00:00 19.4 6 Norte 17 Noroeste 0 1015.4 0.9 63
2017-09-21 09:00:00 17.7 4 Norte 18 Noroeste 0 1015.2 0.8 66
2017-09-21 08:00:00 17.8 5 Norte 14 Norte 0 1014.8 0.2 64
2017-09-21 07:00:00 17.5 2 Norte 9 Noroeste 0 1014.5 -0.5 64
2017-09-21 06:00:00 17.2 0 Calma 11 Noroeste 0 1014.4 -1.1 63
2017-09-21 05:00:00 17.1 0 Calma 10 Noroeste 0 1014.6 -0.9 65
2017-09-21 04:00:00 17.3 2 Norte 11 Norte 0 1015 -0.6 69
2017-09-21 03:00:00 16.8 4 Noroeste 10 Noroeste 0 1015.5 -0.4 82
2017-09-21 02:00:00 17.7 0 Calma 6 Norte 0 1015.5 -0.1 79
2017-09-21 01:00:00 17.1 3 Norte 8 Noroeste 0 1015.6 0.5 95
2017-09-21 00:00:00 17.9 0 Calma 6 Norte 0 1015.9 1.1 95
2017-09-20 23:00:00 18.9 0 Calma 6 Sur 0 1015.6 0.6 90
2017-09-20 22:00:00 20 4 Sur 8 Sudeste 0 1015.1 -0.4 81
2017-09-20 21:00:00 22 3 Oeste 13 Oeste 0 1014.8 -0.9 60
2017-09-20 20:00:00 23.8 7 Oeste 15 Oeste 0 1015 -1 56
2017-09-20 19:00:00 24.7 8 Oeste 17 Oeste 0 1015.5 -1.1 61
2017-09-20 18:00:00 25 9 Sudoeste 15 Sudoeste 0 1015.7 -1.5 62
2017-09-20 17:00:00 23.7 7 Sur 16 Sur 0 1016 -1.7 65
2017-09-20 16:00:00 25 9 Sur 18 Sur 0 1016.6 -1.3 58
2017-09-20 15:00:00 24.8 9 Sur 17 Sudeste 0 1017.2 -0.8 55
2017-09-20 14:00:00 25.1 8 Sur 15 Sur 0 1017.7 -0.3 53
2017-09-20 13:00:00 25.6 5 Sudeste 12 Sur 0 1017.9 0 52
2017-09-20 12:00:00 24.1 4 Este 9 Este 0 1018 0.4 60
2017-09-20 11:00:00 21.1 5 Noroeste 12 Noroeste 0 1018 0.8 68
2017-09-20 10:00:00 19.1 5 Noroeste 13 Norte 0 1017.9 0.9 75
2017-09-20 09:00:00 17.1 2 Nordeste 12 Norte 0 1017.6 0.4 80
2017-09-20 08:00:00 17.8 3 Nordeste 14 Noroeste 0 1017.2 -0.2 77
2017-09-20 07:00:00 18.3 6 Noroeste 14 Noroeste 0 1017 -0.7 74
2017-09-20 06:00:00 18.7 6 Noroeste 16 Norte 0 1017.2 -0.8 73
2017-09-20 05:00:00 19.1 5 Norte 19 Norte 0 1017.4 -0.9 71
2017-09-20 04:00:00 19.6 8 Noroeste 19 Norte 0 1017.7 -0.9 70
2017-09-20 03:00:00 20.1 8 Noroeste 21 Noroeste 0 1018 -1 68
2017-09-20 02:00:00 20.7 7 Noroeste 17 Norte 0 1018.3 -0.5 69
2017-09-20 01:00:00 20.1 3 Noroeste 9 Norte 0 1018.6 0 70
2017-09-20 00:00:00 20.4 3 Noroeste 13 Noroeste 0 1019 0.7 68